createdAt,value
2023-04-29T00:03:15.509Z,99.03
2023-04-29T00:08:18.148Z,99.00
2023-04-29T00:13:21.987Z,99.53
2023-04-29T00:18:24.469Z,99.77
2023-04-29T00:23:26.966Z,99.95
2023-04-29T00:28:30.805Z,99.99
2023-04-29T00:33:33.267Z,100.00
2023-04-29T00:38:35.754Z,100.00
2023-04-29T00:43:39.591Z,99.96
2023-04-29T00:48:42.338Z,100.00
2023-04-29T00:53:45.031Z,100.00
2023-04-29T00:58:51.726Z,100.00
2023-04-29T01:03:54.978Z,100.00
2023-04-29T01:09:11.954Z,100.00
2023-04-29T01:14:16.500Z,100.00
2023-04-29T01:19:32.546Z,100.00
2023-04-29T01:24:36.393Z,100.00
2023-04-29T01:29:44.980Z,100.00
2023-04-29T01:34:55.989Z,100.00
2023-04-29T01:40:09.382Z,100.00
2023-04-29T01:45:12.756Z,100.00
2023-04-29T01:50:15.264Z,100.00
2023-04-29T01:55:20.076Z,100.00
2023-04-29T02:00:22.788Z,100.00
2023-04-29T02:05:25.816Z,100.00
2023-04-29T02:10:29.751Z,100.00
2023-04-29T02:15:32.225Z,100.00
2023-04-29T02:20:34.683Z,100.00
2023-04-29T02:25:38.659Z,100.00
2023-04-29T02:30:41.464Z,100.00
2023-04-29T02:35:43.952Z,100.00
2023-04-29T02:40:48.144Z,100.00
2023-04-29T02:45:50.713Z,100.00
2023-04-29T02:50:53.278Z,100.00
2023-04-29T02:55:57.369Z,100.00
2023-04-29T03:01:00.002Z,100.00
2023-04-29T03:06:02.463Z,100.00
2023-04-29T03:11:06.647Z,100.00
2023-04-29T03:16:09.869Z,100.00
2023-04-29T03:21:12.388Z,100.00
2023-04-29T03:26:16.286Z,100.00
2023-04-29T03:31:20.870Z,100.00
2023-04-29T03:36:23.423Z,100.00
2023-04-29T03:41:27.254Z,100.00
2023-04-29T03:46:29.852Z,100.00
2023-04-29T03:51:32.666Z,100.00
2023-04-29T03:56:36.480Z,100.00
2023-04-29T04:01:39.028Z,100.00
2023-04-29T04:06:41.569Z,100.00
2023-04-29T04:11:45.611Z,100.00
2023-04-29T04:16:50.572Z,100.00
2023-04-29T04:21:53.200Z,100.00
2023-04-29T04:26:57.000Z,100.00
2023-04-29T04:31:59.495Z,100.00
2023-04-29T04:37:02.062Z,100.00
2023-04-29T04:42:05.945Z,100.00
2023-04-29T04:47:08.437Z,100.00
2023-04-29T04:52:11.583Z,100.00
2023-04-29T04:57:16.461Z,100.00
2023-04-29T05:02:19.179Z,100.00
2023-04-29T05:07:21.720Z,100.00
2023-04-29T05:12:30.480Z,100.00
2023-04-29T05:17:34.541Z,100.00
2023-04-29T05:22:37.110Z,100.00
2023-04-29T05:27:41.158Z,100.00
2023-04-29T05:32:45.310Z,100.00
2023-04-29T05:37:47.826Z,100.00
2023-04-29T05:42:51.944Z,100.00
2023-04-29T05:47:54.458Z,100.00
2023-04-29T05:52:57.394Z,100.00
2023-04-29T05:58:01.244Z,100.00
2023-04-29T06:03:03.882Z,100.00
2023-04-29T06:08:07.307Z,100.00
2023-04-29T06:13:11.258Z,100.00
2023-04-29T06:18:13.900Z,100.00
2023-04-29T06:23:16.403Z,100.00
2023-04-29T06:28:20.484Z,100.00
2023-04-29T06:33:22.955Z,100.00
2023-04-29T06:38:25.433Z,100.00
2023-04-29T06:43:29.242Z,100.00
2023-04-29T06:48:31.732Z,100.00
2023-04-29T06:53:34.208Z,100.00
2023-04-29T06:58:38.375Z,100.00
2023-04-29T07:03:41.035Z,100.00
2023-04-29T07:08:43.698Z,100.00
2023-04-29T07:13:47.507Z,100.00
2023-04-29T07:18:50.098Z,100.00
2023-04-29T07:23:52.567Z,100.00
2023-04-29T07:28:56.365Z,100.00
2023-04-29T07:33:58.834Z,100.00
2023-04-29T07:39:01.316Z,100.00
2023-04-29T07:44:05.524Z,100.00
2023-04-29T07:49:07.999Z,100.00
2023-04-29T07:54:10.889Z,100.00
2023-04-29T07:59:14.878Z,100.00
2023-04-29T08:04:17.639Z,100.00
2023-04-29T08:09:20.493Z,100.00
2023-04-29T08:14:24.447Z,98.02
2023-04-29T08:19:26.941Z,97.55
2023-04-29T08:24:29.706Z,96.70
2023-04-29T08:29:34.304Z,97.76
2023-04-29T08:34:37.570Z,97.81
2023-04-29T08:39:40.057Z,96.48
2023-04-29T08:44:44.483Z,97.46
2023-04-29T08:49:46.989Z,95.65
2023-04-29T08:54:49.500Z,93.18
2023-04-29T08:59:53.469Z,93.61
2023-04-29T09:05:06.078Z,91.90
2023-04-29T09:10:09.565Z,90.11
2023-04-29T09:15:13.557Z,88.02
2023-04-29T09:20:27.950Z,89.29
2023-04-29T09:25:31.245Z,87.09
2023-04-29T09:30:47.037Z,82.90
2023-04-29T09:35:49.876Z,85.62
2023-04-29T09:40:59.607Z,86.22
2023-04-29T09:46:04.071Z,86.16
2023-04-29T09:51:07.072Z,85.95
2023-04-29T09:56:09.586Z,84.42
2023-04-29T10:01:14.342Z,83.08
2023-04-29T10:06:18.247Z,83.39
2023-04-29T10:11:21.581Z,82.29
2023-04-29T10:16:30.116Z,78.61
2023-04-29T10:21:33.089Z,77.57
2023-04-29T10:26:39.529Z,76.24
2023-04-29T10:31:44.555Z,72.96
2023-04-29T10:36:48.140Z,75.00
2023-04-29T10:41:52.428Z,75.99
2023-04-29T10:47:20.878Z,76.70
2023-04-29T10:52:23.373Z,73.88
2023-04-29T10:57:26.935Z,73.65
2023-04-29T11:02:30.800Z,72.54
2023-04-29T11:07:33.337Z,71.27
2023-04-29T11:12:35.835Z,70.34
2023-04-29T11:17:41.178Z,70.68
2023-04-29T11:22:52.132Z,70.80
2023-04-29T11:27:56.749Z,68.68
2023-04-29T11:33:01.145Z,65.44
2023-04-29T11:38:05.742Z,67.52
2023-04-29T11:43:08.218Z,66.70
2023-04-29T11:48:19.155Z,67.20
2023-04-29T11:53:22.849Z,65.52
2023-04-29T11:58:25.674Z,63.96
2023-04-29T12:03:29.715Z,65.37
2023-04-29T12:08:33.995Z,62.33
2023-04-29T12:13:36.928Z,63.00
2023-04-29T12:18:41.050Z,64.37
2023-04-29T12:23:43.939Z,60.10
2023-04-29T12:28:46.509Z,61.81
2023-04-29T12:33:50.373Z,62.79
2023-04-29T12:38:54.575Z,63.10
2023-04-29T12:43:57.588Z,62.20
2023-04-29T12:49:03.174Z,65.05
2023-04-29T12:54:07.224Z,63.12
2023-04-29T12:59:11.766Z,62.35
2023-04-29T13:04:15.818Z,60.63
2023-04-29T13:09:19.157Z,62.10
2023-04-29T13:14:22.163Z,64.00
2023-04-29T13:19:43.294Z,63.57
2023-04-29T13:24:48.534Z,63.73
2023-04-29T13:29:51.192Z,64.96
2023-04-29T13:34:55.593Z,63.62
2023-04-29T13:39:58.146Z,64.32
2023-04-29T13:45:00.781Z,63.04
2023-04-29T14:00:38.158Z,63.85
2023-04-29T14:05:42.484Z,61.27
2023-04-29T14:10:45.068Z,60.95
2023-04-29T14:15:47.643Z,60.19
2023-04-29T14:20:51.584Z,60.39
2023-04-29T14:25:58.899Z,60.21
2023-04-29T14:31:09.039Z,61.14
2023-04-29T14:36:12.876Z,62.81
2023-04-29T14:41:15.894Z,63.21
2023-04-29T14:46:18.502Z,64.26
2023-04-29T14:51:22.373Z,64.97
2023-04-29T14:56:24.868Z,66.06
2023-04-29T15:01:28.679Z,65.36
2023-04-29T15:06:34.287Z,65.00
2023-04-29T15:11:36.806Z,66.27
2023-04-29T15:16:39.451Z,67.53
2023-04-29T15:21:43.304Z,68.37
2023-04-29T15:26:46.485Z,67.24
2023-04-29T15:31:49.043Z,66.62
2023-04-29T15:36:53.018Z,64.86
2023-04-29T15:41:55.513Z,66.17
2023-04-29T15:46:58.016Z,66.52
2023-04-29T15:52:02.496Z,66.82
2023-04-29T15:57:05.298Z,67.89
2023-04-29T16:02:10.703Z,68.63
2023-04-29T16:07:14.876Z,67.08
2023-04-29T16:12:17.390Z,68.71
2023-04-29T16:17:20.453Z,68.30
2023-04-29T16:22:24.449Z,68.46
2023-04-29T16:27:29.815Z,68.55
2023-04-29T16:32:33.468Z,69.05
2023-04-29T16:37:37.473Z,70.62
2023-04-29T16:42:39.943Z,71.20
2023-04-29T16:47:42.970Z,70.26
2023-04-29T16:52:46.975Z,71.07
2023-04-29T16:57:49.459Z,70.14
2023-04-29T17:02:52.845Z,71.63
2023-04-29T17:07:56.856Z,71.38
2023-04-29T17:12:59.407Z,71.02
2023-04-29T17:18:01.936Z,70.07
2023-04-29T17:23:06.296Z,70.22
2023-04-29T17:28:08.782Z,68.76
2023-04-29T17:33:13.259Z,68.14
2023-04-29T17:38:17.667Z,69.28
2023-04-29T17:43:20.136Z,69.65
2023-04-29T17:48:22.694Z,70.97
2023-04-29T17:53:28.446Z,71.18
2023-04-29T17:58:30.952Z,71.14
2023-04-29T18:03:33.541Z,71.29
2023-04-29T18:08:37.414Z,71.49
2023-04-29T18:13:40.224Z,71.42
2023-04-29T18:18:43.123Z,71.05
2023-04-29T18:23:47.629Z,70.41
2023-04-29T18:28:50.622Z,70.66
2023-04-29T18:33:53.136Z,71.25
2023-04-29T18:38:57.039Z,71.29
2023-04-29T18:43:59.624Z,71.63
2023-04-29T18:49:02.097Z,72.14
2023-04-29T18:54:06.152Z,72.49
2023-04-29T18:59:10.078Z,72.92
2023-04-29T19:04:12.656Z,73.50
2023-04-29T19:09:16.504Z,73.92
2023-04-29T19:14:19.289Z,75.27
2023-04-29T19:19:21.823Z,76.22
2023-04-29T19:24:25.782Z,77.05
2023-04-29T19:29:28.271Z,77.23
2023-04-29T19:34:30.855Z,77.28
2023-04-29T19:39:34.702Z,78.46
2023-04-29T19:44:37.202Z,78.75
2023-04-29T19:49:39.790Z,79.26
2023-04-29T19:54:43.624Z,79.63
2023-04-29T19:59:46.224Z,79.97
2023-04-29T20:04:49.135Z,80.75
2023-04-29T20:09:53.213Z,80.74
2023-04-29T20:14:56.316Z,81.29
2023-04-29T20:19:59.047Z,81.15
2023-04-29T20:25:03.049Z,81.05
2023-04-29T20:30:06.819Z,81.19
2023-04-29T20:35:09.353Z,81.59
2023-04-29T20:40:13.873Z,81.52
2023-04-29T20:45:16.659Z,81.17
2023-04-29T20:50:19.205Z,81.55
2023-04-29T20:55:23.330Z,81.68
2023-04-29T21:00:25.856Z,81.51
2023-04-29T21:05:28.354Z,82.00
2023-04-29T21:10:32.278Z,82.03
2023-04-29T21:15:34.821Z,82.17
2023-04-29T21:20:37.352Z,82.41
2023-04-29T21:25:41.179Z,82.54
2023-04-29T21:30:43.673Z,82.55
2023-04-29T21:35:49.754Z,82.56
2023-04-29T21:40:54.144Z,82.37
2023-04-29T21:45:56.649Z,82.29
2023-04-29T21:50:59.933Z,82.21
2023-04-29T21:56:03.933Z,82.03
2023-04-29T22:01:25.852Z,82.27
2023-04-29T22:06:28.480Z,82.08
2023-04-29T22:11:32.369Z,82.29
2023-04-29T22:16:35.894Z,82.51
2023-04-29T22:21:40.712Z,82.85
2023-04-29T22:26:44.502Z,83.00
2023-04-29T22:31:47.298Z,83.41
2023-04-29T22:36:49.804Z,84.10
2023-04-29T22:41:53.647Z,84.26
2023-04-29T22:46:56.105Z,84.64
2023-04-29T22:51:58.611Z,85.42
2023-04-29T22:57:03.511Z,85.57
2023-04-29T23:02:06.003Z,85.85
2023-04-29T23:07:08.500Z,86.39
2023-04-29T23:12:12.303Z,87.03
2023-04-29T23:17:14.805Z,87.16
2023-04-29T23:22:17.698Z,86.71
2023-04-29T23:27:21.654Z,86.95
2023-04-29T23:32:24.847Z,86.97
2023-04-29T23:37:27.442Z,87.04
2023-04-29T23:42:31.414Z,87.43
2023-04-29T23:47:33.953Z,87.49
2023-04-29T23:52:36.447Z,87.51
2023-04-29T23:57:40.340Z,87.75
